sensor_id;sensor_type;location;lat;lon;timestamp;P1;durP1;ratioP1;P2;durP2;ratioP2
22007;SDS011;11168;56.976;24.168;2023-04-15T00:00:55;4.95;;;3.38;;
22007;SDS011;11168;56.976;24.168;2023-04-15T00:03:22;4.60;;;3.30;;
22007;SDS011;11168;56.976;24.168;2023-04-15T00:05:50;6.72;;;3.47;;
22007;SDS011;11168;56.976;24.168;2023-04-15T00:08:18;7.97;;;3.40;;
22007;SDS011;11168;56.976;24.168;2023-04-15T00:10:45;5.53;;;3.45;;
22007;SDS011;11168;56.976;24.168;2023-04-15T00:13:13;7.05;;;3.30;;
22007;SDS011;11168;56.976;24.168;2023-04-15T00:15:40;7.43;;;3.65;;
22007;SDS011;11168;56.976;24.168;2023-04-15T00:18:08;6.65;;;3.88;;
22007;SDS011;11168;56.976;24.168;2023-04-15T00:20:35;4.53;;;3.45;;
22007;SDS011;11168;56.976;24.168;2023-04-15T00:23:05;5.22;;;3.38;;
22007;SDS011;11168;56.976;24.168;2023-04-15T00:25:35;4.65;;;3.50;;
22007;SDS011;11168;56.976;24.168;2023-04-15T00:28:02;10.05;;;4.22;;
22007;SDS011;11168;56.976;24.168;2023-04-15T00:30:29;7.25;;;3.63;;
22007;SDS011;11168;56.976;24.168;2023-04-15T00:32:59;7.68;;;4.45;;
22007;SDS011;11168;56.976;24.168;2023-04-15T00:35:29;7.93;;;3.42;;
22007;SDS011;11168;56.976;24.168;2023-04-15T00:38:00;5.07;;;3.58;;
22007;SDS011;11168;56.976;24.168;2023-04-15T00:40:27;5.30;;;3.38;;
22007;SDS011;11168;56.976;24.168;2023-04-15T00:42:54;5.90;;;3.67;;
22007;SDS011;11168;56.976;24.168;2023-04-15T00:45:21;6.30;;;3.22;;
22007;SDS011;11168;56.976;24.168;2023-04-15T00:47:49;5.95;;;4.05;;
22007;SDS011;11168;56.976;24.168;2023-04-15T00:50:17;6.13;;;3.60;;
22007;SDS011;11168;56.976;24.168;2023-04-15T00:52:44;7.65;;;3.60;;
22007;SDS011;11168;56.976;24.168;2023-04-15T00:55:29;6.97;;;3.53;;
22007;SDS011;11168;56.976;24.168;2023-04-15T00:57:56;7.30;;;3.58;;
22007;SDS011;11168;56.976;24.168;2023-04-15T01:00:24;6.22;;;3.47;;
22007;SDS011;11168;56.976;24.168;2023-04-15T01:02:52;8.30;;;3.85;;
22007;SDS011;11168;56.976;24.168;2023-04-15T01:05:19;5.60;;;3.60;;
22007;SDS011;11168;56.976;24.168;2023-04-15T01:07:47;9.30;;;3.90;;
22007;SDS011;11168;56.976;24.168;2023-04-15T01:10:14;5.10;;;3.42;;
22007;SDS011;11168;56.976;24.168;2023-04-15T01:12:42;5.28;;;3.47;;
22007;SDS011;11168;56.976;24.168;2023-04-15T01:15:09;4.88;;;3.00;;
22007;SDS011;11168;56.976;24.168;2023-04-15T01:17:37;8.55;;;3.70;;
22007;SDS011;11168;56.976;24.168;2023-04-15T01:20:05;5.97;;;3.35;;
22007;SDS011;11168;56.976;24.168;2023-04-15T01:22:35;10.60;;;3.55;;
22007;SDS011;11168;56.976;24.168;2023-04-15T01:25:10;5.82;;;3.45;;
22007;SDS011;11168;56.976;24.168;2023-04-15T01:27:38;7.50;;;3.50;;
22007;SDS011;11168;56.976;24.168;2023-04-15T01:30:06;6.95;;;3.80;;
22007;SDS011;11168;56.976;24.168;2023-04-15T01:32:34;5.82;;;3.50;;
22007;SDS011;11168;56.976;24.168;2023-04-15T01:35:01;7.65;;;3.40;;
22007;SDS011;11168;56.976;24.168;2023-04-15T01:37:29;7.35;;;3.20;;
22007;SDS011;11168;56.976;24.168;2023-04-15T01:39:56;6.05;;;3.47;;
22007;SDS011;11168;56.976;24.168;2023-04-15T01:42:23;5.63;;;3.42;;
22007;SDS011;11168;56.976;24.168;2023-04-15T01:44:51;5.18;;;3.60;;
22007;SDS011;11168;56.976;24.168;2023-04-15T01:47:19;5.90;;;3.15;;
22007;SDS011;11168;56.976;24.168;2023-04-15T01:49:47;4.68;;;3.13;;
22007;SDS011;11168;56.976;24.168;2023-04-15T01:52:14;4.72;;;3.33;;
22007;SDS011;11168;56.976;24.168;2023-04-15T01:54:41;4.28;;;3.20;;
22007;SDS011;11168;56.976;24.168;2023-04-15T01:57:09;5.40;;;3.15;;
22007;SDS011;11168;56.976;24.168;2023-04-15T01:59:36;6.05;;;3.70;;
22007;SDS011;11168;56.976;24.168;2023-04-15T02:02:03;8.40;;;3.65;;
22007;SDS011;11168;56.976;24.168;2023-04-15T02:04:31;4.88;;;3.03;;
22007;SDS011;11168;56.976;24.168;2023-04-15T02:06:59;5.38;;;3.58;;
22007;SDS011;11168;56.976;24.168;2023-04-15T02:09:26;7.00;;;3.45;;
22007;SDS011;11168;56.976;24.168;2023-04-15T02:11:54;5.93;;;3.47;;
22007;SDS011;11168;56.976;24.168;2023-04-15T02:14:22;6.38;;;3.60;;
22007;SDS011;11168;56.976;24.168;2023-04-15T02:16:49;7.40;;;3.60;;
22007;SDS011;11168;56.976;24.168;2023-04-15T02:19:17;6.30;;;3.33;;
22007;SDS011;11168;56.976;24.168;2023-04-15T02:21:44;5.90;;;3.53;;
22007;SDS011;11168;56.976;24.168;2023-04-15T02:24:11;4.65;;;3.25;;
22007;SDS011;11168;56.976;24.168;2023-04-15T02:26:39;5.43;;;3.65;;
22007;SDS011;11168;56.976;24.168;2023-04-15T02:29:06;7.07;;;3.70;;
22007;SDS011;11168;56.976;24.168;2023-04-15T02:31:33;5.22;;;3.50;;
22007;SDS011;11168;56.976;24.168;2023-04-15T02:34:05;4.90;;;2.90;;
22007;SDS011;11168;56.976;24.168;2023-04-15T02:36:33;5.57;;;3.30;;
22007;SDS011;11168;56.976;24.168;2023-04-15T02:39:00;6.68;;;3.35;;
22007;SDS011;11168;56.976;24.168;2023-04-15T02:41:28;5.30;;;3.67;;
22007;SDS011;11168;56.976;24.168;2023-04-15T02:43:58;6.78;;;3.80;;
22007;SDS011;11168;56.976;24.168;2023-04-15T02:46:26;5.18;;;3.47;;
22007;SDS011;11168;56.976;24.168;2023-04-15T02:48:53;4.47;;;3.40;;
22007;SDS011;11168;56.976;24.168;2023-04-15T02:51:21;6.78;;;3.88;;
22007;SDS011;11168;56.976;24.168;2023-04-15T02:53:48;7.10;;;3.33;;
22007;SDS011;11168;56.976;24.168;2023-04-15T02:56:16;10.27;;;5.88;;
22007;SDS011;11168;56.976;24.168;2023-04-15T02:58:44;6.95;;;3.80;;
22007;SDS011;11168;56.976;24.168;2023-04-15T03:01:12;6.22;;;3.80;;
22007;SDS011;11168;56.976;24.168;2023-04-15T03:03:40;7.70;;;3.53;;
22007;SDS011;11168;56.976;24.168;2023-04-15T03:06:07;5.60;;;3.85;;
22007;SDS011;11168;56.976;24.168;2023-04-15T03:08:34;5.43;;;3.42;;
22007;SDS011;11168;56.976;24.168;2023-04-15T03:11:02;4.95;;;3.55;;
22007;SDS011;11168;56.976;24.168;2023-04-15T03:13:30;6.47;;;4.03;;
22007;SDS011;11168;56.976;24.168;2023-04-15T03:15:57;7.45;;;3.60;;
22007;SDS011;11168;56.976;24.168;2023-04-15T03:18:24;6.93;;;3.67;;
22007;SDS011;11168;56.976;24.168;2023-04-15T03:20:54;6.13;;;3.70;;
22007;SDS011;11168;56.976;24.168;2023-04-15T03:23:21;6.72;;;3.65;;
22007;SDS011;11168;56.976;24.168;2023-04-15T03:25:49;9.55;;;4.07;;
22007;SDS011;11168;56.976;24.168;2023-04-15T03:28:16;5.28;;;3.88;;
22007;SDS011;11168;56.976;24.168;2023-04-15T03:30:43;6.07;;;3.85;;
22007;SDS011;11168;56.976;24.168;2023-04-15T03:33:11;7.10;;;3.28;;
22007;SDS011;11168;56.976;24.168;2023-04-15T03:35:38;5.57;;;3.60;;
22007;SDS011;11168;56.976;24.168;2023-04-15T03:38:05;5.75;;;3.67;;
22007;SDS011;11168;56.976;24.168;2023-04-15T03:40:35;5.63;;;3.72;;
22007;SDS011;11168;56.976;24.168;2023-04-15T03:43:02;4.90;;;3.58;;
22007;SDS011;11168;56.976;24.168;2023-04-15T03:45:29;4.45;;;3.40;;
22007;SDS011;11168;56.976;24.168;2023-04-15T03:47:57;9.20;;;3.55;;
22007;SDS011;11168;56.976;24.168;2023-04-15T03:50:42;5.28;;;3.40;;
22007;SDS011;11168;56.976;24.168;2023-04-15T03:53:10;4.68;;;3.38;;
22007;SDS011;11168;56.976;24.168;2023-04-15T03:55:37;7.80;;;3.97;;
22007;SDS011;11168;56.976;24.168;2023-04-15T03:58:04;6.32;;;3.75;;
22007;SDS011;11168;56.976;24.168;2023-04-15T04:00:31;7.30;;;3.72;;
22007;SDS011;11168;56.976;24.168;2023-04-15T04:02:59;5.30;;;3.88;;
22007;SDS011;11168;56.976;24.168;2023-04-15T04:05:26;4.47;;;3.50;;
22007;SDS011;11168;56.976;24.168;2023-04-15T04:07:53;5.75;;;3.55;;
22007;SDS011;11168;56.976;24.168;2023-04-15T04:10:21;5.45;;;3.28;;
22007;SDS011;11168;56.976;24.168;2023-04-15T04:12:48;6.30;;;3.50;;
22007;SDS011;11168;56.976;24.168;2023-04-15T04:15:15;8.05;;;3.72;;
22007;SDS011;11168;56.976;24.168;2023-04-15T04:17:43;5.10;;;3.33;;
22007;SDS011;11168;56.976;24.168;2023-04-15T04:20:10;5.75;;;3.75;;
22007;SDS011;11168;56.976;24.168;2023-04-15T04:22:38;7.45;;;3.78;;
22007;SDS011;11168;56.976;24.168;2023-04-15T04:25:06;9.23;;;4.32;;
22007;SDS011;11168;56.976;24.168;2023-04-15T04:27:33;6.30;;;3.83;;
22007;SDS011;11168;56.976;24.168;2023-04-15T04:30:01;7.65;;;3.70;;
22007;SDS011;11168;56.976;24.168;2023-04-15T04:32:28;7.30;;;4.05;;
22007;SDS011;11168;56.976;24.168;2023-04-15T04:34:55;5.30;;;3.63;;
22007;SDS011;11168;56.976;24.168;2023-04-15T04:37:23;7.78;;;3.75;;
22007;SDS011;11168;56.976;24.168;2023-04-15T04:39:50;7.18;;;3.85;;
22007;SDS011;11168;56.976;24.168;2023-04-15T04:42:18;5.15;;;3.67;;
22007;SDS011;11168;56.976;24.168;2023-04-15T04:44:45;6.57;;;3.90;;
22007;SDS011;11168;56.976;24.168;2023-04-15T04:47:13;6.97;;;3.60;;
22007;SDS011;11168;56.976;24.168;2023-04-15T04:49:40;6.22;;;4.10;;
22007;SDS011;11168;56.976;24.168;2023-04-15T04:52:07;8.68;;;3.88;;
22007;SDS011;11168;56.976;24.168;2023-04-15T04:54:35;6.80;;;3.90;;
22007;SDS011;11168;56.976;24.168;2023-04-15T04:57:02;7.47;;;4.20;;
22007;SDS011;11168;56.976;24.168;2023-04-15T04:59:29;6.43;;;3.40;;
22007;SDS011;11168;56.976;24.168;2023-04-15T05:01:57;6.38;;;3.95;;
22007;SDS011;11168;56.976;24.168;2023-04-15T05:04:24;6.35;;;3.47;;
22007;SDS011;11168;56.976;24.168;2023-04-15T05:06:51;8.23;;;3.92;;
22007;SDS011;11168;56.976;24.168;2023-04-15T05:09:19;7.90;;;3.80;;
22007;SDS011;11168;56.976;24.168;2023-04-15T05:11:46;8.20;;;3.60;;
22007;SDS011;11168;56.976;24.168;2023-04-15T05:14:13;7.07;;;3.70;;
22007;SDS011;11168;56.976;24.168;2023-04-15T05:16:41;10.68;;;3.85;;
22007;SDS011;11168;56.976;24.168;2023-04-15T05:19:08;6.65;;;3.47;;
22007;SDS011;11168;56.976;24.168;2023-04-15T05:21:35;10.23;;;3.80;;
22007;SDS011;11168;56.976;24.168;2023-04-15T05:24:04;6.43;;;3.88;;
22007;SDS011;11168;56.976;24.168;2023-04-15T05:26:32;9.13;;;3.70;;
22007;SDS011;11168;56.976;24.168;2023-04-15T05:28:59;6.60;;;3.70;;
22007;SDS011;11168;56.976;24.168;2023-04-15T05:31:27;5.63;;;3.33;;
22007;SDS011;11168;56.976;24.168;2023-04-15T05:33:54;5.50;;;3.65;;
22007;SDS011;11168;56.976;24.168;2023-04-15T05:36:22;9.27;;;3.47;;
22007;SDS011;11168;56.976;24.168;2023-04-15T05:38:49;5.97;;;3.65;;
22007;SDS011;11168;56.976;24.168;2023-04-15T05:41:16;11.25;;;3.58;;
22007;SDS011;11168;56.976;24.168;2023-04-15T05:43:45;7.10;;;3.60;;
22007;SDS011;11168;56.976;24.168;2023-04-15T05:46:12;5.88;;;3.50;;
22007;SDS011;11168;56.976;24.168;2023-04-15T05:48:39;6.18;;;3.40;;
22007;SDS011;11168;56.976;24.168;2023-04-15T05:51:07;7.78;;;3.53;;
22007;SDS011;11168;56.976;24.168;2023-04-15T05:53:34;8.18;;;3.53;;
22007;SDS011;11168;56.976;24.168;2023-04-15T05:56:01;5.93;;;3.42;;
22007;SDS011;11168;56.976;24.168;2023-04-15T05:58:28;8.38;;;3.85;;
22007;SDS011;11168;56.976;24.168;2023-04-15T06:00:56;6.57;;;3.92;;
22007;SDS011;11168;56.976;24.168;2023-04-15T06:03:23;6.13;;;3.55;;
22007;SDS011;11168;56.976;24.168;2023-04-15T06:05:50;7.63;;;3.17;;
22007;SDS011;11168;56.976;24.168;2023-04-15T06:08:18;11.05;;;3.90;;
22007;SDS011;11168;56.976;24.168;2023-04-15T06:10:45;7.93;;;4.03;;
22007;SDS011;11168;56.976;24.168;2023-04-15T06:13:13;7.50;;;3.60;;
22007;SDS011;11168;56.976;24.168;2023-04-15T06:15:40;7.72;;;3.88;;
22007;SDS011;11168;56.976;24.168;2023-04-15T06:18:08;6.05;;;3.22;;
22007;SDS011;11168;56.976;24.168;2023-04-15T06:20:36;8.07;;;3.47;;
22007;SDS011;11168;56.976;24.168;2023-04-15T06:23:04;8.18;;;3.80;;
22007;SDS011;11168;56.976;24.168;2023-04-15T06:25:32;6.10;;;3.75;;
22007;SDS011;11168;56.976;24.168;2023-04-15T06:27:59;6.75;;;3.97;;
22007;SDS011;11168;56.976;24.168;2023-04-15T06:30:26;7.43;;;3.88;;
22007;SDS011;11168;56.976;24.168;2023-04-15T06:32:53;5.78;;;3.70;;
22007;SDS011;11168;56.976;24.168;2023-04-15T06:35:21;6.88;;;3.67;;
22007;SDS011;11168;56.976;24.168;2023-04-15T06:37:48;6.55;;;3.50;;
22007;SDS011;11168;56.976;24.168;2023-04-15T06:40:16;9.38;;;3.85;;
22007;SDS011;11168;56.976;24.168;2023-04-15T06:42:44;6.05;;;3.38;;
22007;SDS011;11168;56.976;24.168;2023-04-15T06:45:11;6.15;;;3.72;;
22007;SDS011;11168;56.976;24.168;2023-04-15T06:47:39;8.35;;;3.80;;
22007;SDS011;11168;56.976;24.168;2023-04-15T06:50:07;7.68;;;3.67;;
22007;SDS011;11168;56.976;24.168;2023-04-15T06:52:34;5.90;;;4.05;;
22007;SDS011;11168;56.976;24.168;2023-04-15T06:55:02;8.45;;;4.03;;
22007;SDS011;11168;56.976;24.168;2023-04-15T06:57:29;6.35;;;4.05;;
22007;SDS011;11168;56.976;24.168;2023-04-15T07:00:00;7.00;;;4.22;;
22007;SDS011;11168;56.976;24.168;2023-04-15T07:02:27;8.57;;;4.32;;
22007;SDS011;11168;56.976;24.168;2023-04-15T07:04:54;8.23;;;4.10;;
22007;SDS011;11168;56.976;24.168;2023-04-15T07:07:22;9.52;;;4.50;;
22007;SDS011;11168;56.976;24.168;2023-04-15T07:09:49;6.20;;;3.63;;
22007;SDS011;11168;56.976;24.168;2023-04-15T07:12:19;6.80;;;3.90;;
22007;SDS011;11168;56.976;24.168;2023-04-15T07:14:46;8.90;;;4.72;;
22007;SDS011;11168;56.976;24.168;2023-04-15T07:17:14;12.10;;;6.03;;
22007;SDS011;11168;56.976;24.168;2023-04-15T07:19:42;10.88;;;5.28;;
22007;SDS011;11168;56.976;24.168;2023-04-15T07:22:09;12.65;;;5.65;;
22007;SDS011;11168;56.976;24.168;2023-04-15T07:24:36;12.75;;;5.53;;
22007;SDS011;11168;56.976;24.168;2023-04-15T07:27:04;9.90;;;5.72;;
22007;SDS011;11168;56.976;24.168;2023-04-15T07:29:31;9.43;;;5.78;;
22007;SDS011;11168;56.976;24.168;2023-04-15T07:31:58;8.02;;;5.15;;
22007;SDS011;11168;56.976;24.168;2023-04-15T07:34:26;12.05;;;4.97;;
22007;SDS011;11168;56.976;24.168;2023-04-15T07:36:55;10.45;;;5.28;;
22007;SDS011;11168;56.976;24.168;2023-04-15T07:39:23;11.68;;;4.88;;
22007;SDS011;11168;56.976;24.168;2023-04-15T07:41:51;8.52;;;5.53;;
22007;SDS011;11168;56.976;24.168;2023-04-15T07:44:18;11.88;;;5.25;;
22007;SDS011;11168;56.976;24.168;2023-04-15T07:46:46;12.00;;;5.45;;
22007;SDS011;11168;56.976;24.168;2023-04-15T07:49:13;9.05;;;5.10;;
22007;SDS011;11168;56.976;24.168;2023-04-15T07:51:41;10.88;;;5.55;;
22007;SDS011;11168;56.976;24.168;2023-04-15T07:54:09;9.60;;;5.50;;
22007;SDS011;11168;56.976;24.168;2023-04-15T07:56:36;10.98;;;5.28;;
22007;SDS011;11168;56.976;24.168;2023-04-15T07:59:04;11.90;;;5.20;;
22007;SDS011;11168;56.976;24.168;2023-04-15T08:01:31;12.13;;;5.68;;
22007;SDS011;11168;56.976;24.168;2023-04-15T08:03:59;10.48;;;5.47;;
22007;SDS011;11168;56.976;24.168;2023-04-15T08:06:26;9.45;;;5.43;;
22007;SDS011;11168;56.976;24.168;2023-04-15T08:08:54;11.30;;;5.50;;
22007;SDS011;11168;56.976;24.168;2023-04-15T08:11:21;9.63;;;6.07;;
22007;SDS011;11168;56.976;24.168;2023-04-15T08:13:49;11.13;;;5.85;;
22007;SDS011;11168;56.976;24.168;2023-04-15T08:18:46;13.10;;;5.80;;
22007;SDS011;11168;56.976;24.168;2023-04-15T08:21:13;16.98;;;5.90;;
22007;SDS011;11168;56.976;24.168;2023-04-15T08:23:41;8.30;;;5.43;;
22007;SDS011;11168;56.976;24.168;2023-04-15T08:26:09;11.43;;;5.85;;
22007;SDS011;11168;56.976;24.168;2023-04-15T08:28:37;8.32;;;5.72;;
22007;SDS011;11168;56.976;24.168;2023-04-15T08:31:05;11.40;;;5.65;;
22007;SDS011;11168;56.976;24.168;2023-04-15T08:33:32;10.77;;;5.65;;
22007;SDS011;11168;56.976;24.168;2023-04-15T08:36:00;10.50;;;5.53;;
22007;SDS011;11168;56.976;24.168;2023-04-15T08:38:27;9.52;;;5.38;;
22007;SDS011;11168;56.976;24.168;2023-04-15T08:40:56;11.77;;;5.78;;
22007;SDS011;11168;56.976;24.168;2023-04-15T08:43:26;10.32;;;5.50;;
22007;SDS011;11168;56.976;24.168;2023-04-15T08:45:55;9.25;;;5.57;;
22007;SDS011;11168;56.976;24.168;2023-04-15T08:48:25;18.75;;;5.68;;
22007;SDS011;11168;56.976;24.168;2023-04-15T08:50:54;12.93;;;5.47;;
22007;SDS011;11168;56.976;24.168;2023-04-15T08:53:22;10.40;;;5.75;;
22007;SDS011;11168;56.976;24.168;2023-04-15T08:55:51;12.27;;;5.85;;
22007;SDS011;11168;56.976;24.168;2023-04-15T08:58:19;11.70;;;6.15;;
22007;SDS011;11168;56.976;24.168;2023-04-15T09:00:46;19.00;;;7.65;;
22007;SDS011;11168;56.976;24.168;2023-04-15T09:03:14;17.92;;;7.10;;
22007;SDS011;11168;56.976;24.168;2023-04-15T09:05:43;16.38;;;7.70;;
22007;SDS011;11168;56.976;24.168;2023-04-15T09:08:10;13.35;;;7.22;;
22007;SDS011;11168;56.976;24.168;2023-04-15T09:10:38;19.70;;;6.63;;
22007;SDS011;11168;56.976;24.168;2023-04-15T09:13:05;14.70;;;7.13;;
22007;SDS011;11168;56.976;24.168;2023-04-15T09:15:32;11.10;;;6.88;;
22007;SDS011;11168;56.976;24.168;2023-04-15T09:17:59;14.73;;;7.25;;
22007;SDS011;11168;56.976;24.168;2023-04-15T09:20:27;13.10;;;7.22;;
22007;SDS011;11168;56.976;24.168;2023-04-15T09:22:54;12.98;;;6.50;;
22007;SDS011;11168;56.976;24.168;2023-04-15T09:27:59;10.88;;;7.07;;
22007;SDS011;11168;56.976;24.168;2023-04-15T09:30:27;14.55;;;6.30;;
22007;SDS011;11168;56.976;24.168;2023-04-15T09:32:55;11.65;;;6.40;;
22007;SDS011;11168;56.976;24.168;2023-04-15T09:35:23;13.50;;;6.35;;
22007;SDS011;11168;56.976;24.168;2023-04-15T09:37:51;12.95;;;6.35;;
22007;SDS011;11168;56.976;24.168;2023-04-15T09:42:59;12.02;;;5.93;;
22007;SDS011;11168;56.976;24.168;2023-04-15T09:45:30;13.00;;;6.32;;
22007;SDS011;11168;56.976;24.168;2023-04-15T09:47:58;11.73;;;6.80;;
22007;SDS011;11168;56.976;24.168;2023-04-15T09:50:26;9.40;;;5.93;;
22007;SDS011;11168;56.976;24.168;2023-04-15T09:52:54;11.23;;;6.18;;
22007;SDS011;11168;56.976;24.168;2023-04-15T09:55:22;13.93;;;6.70;;
22007;SDS011;11168;56.976;24.168;2023-04-15T09:57:50;15.35;;;6.55;;
22007;SDS011;11168;56.976;24.168;2023-04-15T10:00:17;16.27;;;7.05;;
22007;SDS011;11168;56.976;24.168;2023-04-15T10:02:44;15.45;;;7.90;;
22007;SDS011;11168;56.976;24.168;2023-04-15T10:05:14;11.40;;;7.30;;
22007;SDS011;11168;56.976;24.168;2023-04-15T10:07:43;12.88;;;7.30;;
22007;SDS011;11168;56.976;24.168;2023-04-15T10:10:11;14.25;;;7.38;;
22007;SDS011;11168;56.976;24.168;2023-04-15T10:12:39;12.07;;;7.35;;
22007;SDS011;11168;56.976;24.168;2023-04-15T10:15:08;12.80;;;7.28;;
22007;SDS011;11168;56.976;24.168;2023-04-15T10:17:39;15.68;;;6.82;;
22007;SDS011;11168;56.976;24.168;2023-04-15T10:20:08;15.60;;;7.13;;
22007;SDS011;11168;56.976;24.168;2023-04-15T10:22:38;12.65;;;7.85;;
22007;SDS011;11168;56.976;24.168;2023-04-15T10:25:06;15.90;;;7.93;;
22007;SDS011;11168;56.976;24.168;2023-04-15T10:27:34;14.13;;;7.72;;
22007;SDS011;11168;56.976;24.168;2023-04-15T10:30:02;15.48;;;7.20;;
22007;SDS011;11168;56.976;24.168;2023-04-15T10:32:29;11.75;;;7.40;;
22007;SDS011;11168;56.976;24.168;2023-04-15T10:34:57;13.88;;;7.72;;
22007;SDS011;11168;56.976;24.168;2023-04-15T10:37:35;12.57;;;7.13;;
22007;SDS011;11168;56.976;24.168;2023-04-15T10:42:49;11.68;;;6.90;;
22007;SDS011;11168;56.976;24.168;2023-04-15T10:45:17;13.55;;;6.88;;
22007;SDS011;11168;56.976;24.168;2023-04-15T10:47:44;13.18;;;7.70;;
22007;SDS011;11168;56.976;24.168;2023-04-15T10:50:11;11.10;;;6.82;;
22007;SDS011;11168;56.976;24.168;2023-04-15T10:52:39;15.77;;;7.35;;
22007;SDS011;11168;56.976;24.168;2023-04-15T10:55:14;11.77;;;6.85;;
22007;SDS011;11168;56.976;24.168;2023-04-15T10:57:42;10.23;;;6.90;;
22007;SDS011;11168;56.976;24.168;2023-04-15T11:00:11;12.88;;;6.95;;
22007;SDS011;11168;56.976;24.168;2023-04-15T11:02:39;13.25;;;6.72;;
22007;SDS011;11168;56.976;24.168;2023-04-15T11:05:08;14.88;;;6.88;;
22007;SDS011;11168;56.976;24.168;2023-04-15T11:12:50;14.07;;;8.80;;
22007;SDS011;11168;56.976;24.168;2023-04-15T11:20:38;11.70;;;7.22;;
22007;SDS011;11168;56.976;24.168;2023-04-15T11:23:05;16.27;;;7.47;;
22007;SDS011;11168;56.976;24.168;2023-04-15T11:25:40;12.02;;;6.38;;
22007;SDS011;11168;56.976;24.168;2023-04-15T11:28:09;14.10;;;7.07;;
22007;SDS011;11168;56.976;24.168;2023-04-15T11:30:37;10.07;;;6.65;;
22007;SDS011;11168;56.976;24.168;2023-04-15T11:33:06;11.88;;;7.05;;
22007;SDS011;11168;56.976;24.168;2023-04-15T11:35:34;11.68;;;6.70;;
22007;SDS011;11168;56.976;24.168;2023-04-15T11:38:01;12.30;;;7.30;;
22007;SDS011;11168;56.976;24.168;2023-04-15T11:40:29;11.55;;;6.97;;
22007;SDS011;11168;56.976;24.168;2023-04-15T11:43:12;13.73;;;6.82;;
22007;SDS011;11168;56.976;24.168;2023-04-15T11:46:01;11.45;;;6.35;;
22007;SDS011;11168;56.976;24.168;2023-04-15T11:48:40;15.05;;;6.90;;
22007;SDS011;11168;56.976;24.168;2023-04-15T11:51:07;11.35;;;6.18;;
22007;SDS011;11168;56.976;24.168;2023-04-15T11:56:21;13.18;;;6.78;;
22007;SDS011;11168;56.976;24.168;2023-04-15T11:58:53;14.52;;;6.78;;
22007;SDS011;11168;56.976;24.168;2023-04-15T12:01:35;9.60;;;6.03;;
22007;SDS011;11168;56.976;24.168;2023-04-15T12:04:14;11.82;;;6.30;;
22007;SDS011;11168;56.976;24.168;2023-04-15T12:06:47;12.52;;;6.43;;
22007;SDS011;11168;56.976;24.168;2023-04-15T12:09:15;14.75;;;6.30;;
22007;SDS011;11168;56.976;24.168;2023-04-15T12:11:46;9.23;;;6.18;;
22007;SDS011;11168;56.976;24.168;2023-04-15T12:14:27;9.98;;;6.57;;
22007;SDS011;11168;56.976;24.168;2023-04-15T12:16:58;12.95;;;6.68;;
22007;SDS011;11168;56.976;24.168;2023-04-15T12:19:27;15.57;;;6.20;;
22007;SDS011;11168;56.976;24.168;2023-04-15T12:21:59;9.45;;;6.38;;
22007;SDS011;11168;56.976;24.168;2023-04-15T12:24:26;9.50;;;6.20;;
22007;SDS011;11168;56.976;24.168;2023-04-15T12:26:54;10.43;;;6.35;;
22007;SDS011;11168;56.976;24.168;2023-04-15T12:29:26;8.43;;;6.00;;
22007;SDS011;11168;56.976;24.168;2023-04-15T12:34:25;11.23;;;6.13;;
22007;SDS011;11168;56.976;24.168;2023-04-15T12:36:53;13.75;;;6.70;;
22007;SDS011;11168;56.976;24.168;2023-04-15T12:42:07;8.75;;;6.47;;
22007;SDS011;11168;56.976;24.168;2023-04-15T12:44:37;13.03;;;6.63;;
22007;SDS011;11168;56.976;24.168;2023-04-15T12:47:05;12.70;;;6.30;;
22007;SDS011;11168;56.976;24.168;2023-04-15T12:49:33;13.77;;;6.43;;
22007;SDS011;11168;56.976;24.168;2023-04-15T12:52:00;13.50;;;6.00;;
22007;SDS011;11168;56.976;24.168;2023-04-15T12:54:31;13.40;;;5.93;;
22007;SDS011;11168;56.976;24.168;2023-04-15T12:56:59;16.75;;;6.50;;
22007;SDS011;11168;56.976;24.168;2023-04-15T12:59:26;11.68;;;5.82;;
22007;SDS011;11168;56.976;24.168;2023-04-15T13:01:54;12.18;;;6.28;;
22007;SDS011;11168;56.976;24.168;2023-04-15T13:04:22;12.35;;;6.13;;
22007;SDS011;11168;56.976;24.168;2023-04-15T13:06:50;9.65;;;6.30;;
22007;SDS011;11168;56.976;24.168;2023-04-15T13:09:17;15.23;;;5.88;;
22007;SDS011;11168;56.976;24.168;2023-04-15T13:11:44;16.67;;;6.72;;
22007;SDS011;11168;56.976;24.168;2023-04-15T13:14:11;12.82;;;5.93;;
22007;SDS011;11168;56.976;24.168;2023-04-15T13:16:39;13.90;;;5.75;;
22007;SDS011;11168;56.976;24.168;2023-04-15T13:19:24;9.48;;;5.45;;
22007;SDS011;11168;56.976;24.168;2023-04-15T13:21:52;11.75;;;5.80;;
22007;SDS011;11168;56.976;24.168;2023-04-15T13:24:19;13.10;;;6.10;;
22007;SDS011;11168;56.976;24.168;2023-04-15T13:26:46;13.10;;;5.68;;
22007;SDS011;11168;56.976;24.168;2023-04-15T13:29:15;13.75;;;6.55;;
22007;SDS011;11168;56.976;24.168;2023-04-15T13:31:42;12.93;;;5.70;;
22007;SDS011;11168;56.976;24.168;2023-04-15T13:34:10;17.08;;;6.75;;
22007;SDS011;11168;56.976;24.168;2023-04-15T13:36:54;11.70;;;5.50;;
22007;SDS011;11168;56.976;24.168;2023-04-15T13:39:39;10.30;;;5.80;;
22007;SDS011;11168;56.976;24.168;2023-04-15T13:42:24;10.25;;;5.85;;
22007;SDS011;11168;56.976;24.168;2023-04-15T13:45:10;12.68;;;6.40;;
22007;SDS011;11168;56.976;24.168;2023-04-15T13:47:55;14.77;;;6.32;;
22007;SDS011;11168;56.976;24.168;2023-04-15T13:50:23;12.05;;;6.38;;
22007;SDS011;11168;56.976;24.168;2023-04-15T13:52:50;10.23;;;6.25;;
22007;SDS011;11168;56.976;24.168;2023-04-15T13:55:17;12.10;;;6.03;;
22007;SDS011;11168;56.976;24.168;2023-04-15T14:00:16;9.90;;;5.88;;
22007;SDS011;11168;56.976;24.168;2023-04-15T14:02:43;12.38;;;6.32;;
22007;SDS011;11168;56.976;24.168;2023-04-15T14:05:28;13.15;;;6.07;;
22007;SDS011;11168;56.976;24.168;2023-04-15T14:07:56;11.77;;;6.30;;
22007;SDS011;11168;56.976;24.168;2023-04-15T14:10:25;15.05;;;5.82;;
22007;SDS011;11168;56.976;24.168;2023-04-15T14:12:52;15.30;;;6.55;;
22007;SDS011;11168;56.976;24.168;2023-04-15T14:15:37;13.05;;;5.60;;
22007;SDS011;11168;56.976;24.168;2023-04-15T14:18:04;8.18;;;5.93;;
22007;SDS011;11168;56.976;24.168;2023-04-15T14:20:31;10.45;;;6.53;;
22007;SDS011;11168;56.976;24.168;2023-04-15T14:22:58;19.63;;;6.55;;
22007;SDS011;11168;56.976;24.168;2023-04-15T14:25:43;18.52;;;6.60;;
22007;SDS011;11168;56.976;24.168;2023-04-15T14:28:13;11.90;;;6.57;;
22007;SDS011;11168;56.976;24.168;2023-04-15T14:30:41;15.02;;;6.65;;
22007;SDS011;11168;56.976;24.168;2023-04-15T14:33:08;15.65;;;6.70;;
22007;SDS011;11168;56.976;24.168;2023-04-15T14:35:36;14.98;;;6.45;;
22007;SDS011;11168;56.976;24.168;2023-04-15T14:38:03;10.70;;;6.40;;
22007;SDS011;11168;56.976;24.168;2023-04-15T14:40:32;12.90;;;6.35;;
22007;SDS011;11168;56.976;24.168;2023-04-15T14:42:59;11.35;;;5.82;;
22007;SDS011;11168;56.976;24.168;2023-04-15T14:45:27;12.77;;;6.22;;
22007;SDS011;11168;56.976;24.168;2023-04-15T14:47:54;9.77;;;5.82;;
22007;SDS011;11168;56.976;24.168;2023-04-15T14:50:22;13.60;;;5.82;;
22007;SDS011;11168;56.976;24.168;2023-04-15T14:52:49;15.38;;;6.05;;
22007;SDS011;11168;56.976;24.168;2023-04-15T14:55:17;7.82;;;5.20;;
22007;SDS011;11168;56.976;24.168;2023-04-15T14:58:01;11.80;;;5.57;;
22007;SDS011;11168;56.976;24.168;2023-04-15T15:00:47;8.80;;;5.85;;
22007;SDS011;11168;56.976;24.168;2023-04-15T15:03:31;8.45;;;5.70;;
22007;SDS011;11168;56.976;24.168;2023-04-15T15:06:16;8.90;;;5.75;;
22007;SDS011;11168;56.976;24.168;2023-04-15T15:08:44;14.25;;;5.90;;